Orto / Ocaso: 06:58 / 17:05 UTC (Datos para LEAX 18-11-2017)

[fuente: ADDS]

METAR:


LEMG 180230Z 29007KT CAVOK 09/07 Q1020 NOSIG =
LEGR 180230Z AUTO 00000KT 9999 NCD 02/01 Q1020 =
LEZL 180230Z 00000KT CAVOK 09/06 Q1019 NOSIG =
LEAM 180230Z AUTO 34006KT 9999 NCD 12/08 Q1019 =
LEBA 180230Z AUTO 00000KT 9999 NCD 05/03 Q1020 =
LEJR 180230Z AUTO 00000KT 9999 NCD 07/07 Q1019 =
GEML 180230Z AUTO 27001KT 9999 NCD 12/11 Q1019 =
LXGB 180150Z AUTO 08012KT 9999 // SCT024/// 16/13 Q1019 =

TAFOR:


TAF LEMG 172300Z 1800/1824 31003KT CAVOK TX18/1814Z TN10/1807Z PROB40 TEMPO 1800/1812 BKN009 BECMG 1812/1814 14005KT =
TAF LEGR 180200Z 1803/1903 VRB02KT CAVOK TX19/1815Z TN05/1807Z =
TAF LEZL 180200Z 1803/1903 05005KT CAVOK TX22/1815Z TN08/1807Z =
TAF LEAM 180200Z 1803/1903 04005KT CAVOK TX19/1813Z TN10/1805Z =
TAF LEBA 180200Z 1803/1812 VRB02KT CAVOK =
TAF LEJR 172300Z 1800/1824 VRB02KT CAVOK TX21/1815Z TN09/1806Z =
TAF GEML 180200Z 1803/1903 09005KT CAVOK TX19/1813Z TN09/1807Z =

Recuerde que, aunque regularmente actualizada, la información meteorológica aquí presentada no debe ser utilizada para la planificación de vuelos. Si lo desea, puede consultar la información meteorológica adecuada, tanto de aeródromos como en ruta, por las vías oficialmente establecidas en la legislación -> AQUí